sensor_id;sensor_type;location;lat;lon;timestamp;P1;durP1;ratioP1;P2;durP2;ratioP2
9888;SDS011;4983;42.112;24.738;2023-04-30T00:02:01;3.53;;;2.40;;
9888;SDS011;4983;42.112;24.738;2023-04-30T00:04:28;3.07;;;2.37;;
9888;SDS011;4983;42.112;24.738;2023-04-30T00:06:54;2.63;;;2.40;;
9888;SDS011;4983;42.112;24.738;2023-04-30T00:09:21;3.73;;;2.63;;
9888;SDS011;4983;42.112;24.738;2023-04-30T00:11:48;2.70;;;2.30;;
9888;SDS011;4983;42.112;24.738;2023-04-30T00:14:15;2.77;;;2.40;;
9888;SDS011;4983;42.112;24.738;2023-04-30T00:16:42;3.33;;;2.40;;
9888;SDS011;4983;42.112;24.738;2023-04-30T00:19:09;4.33;;;2.63;;
9888;SDS011;4983;42.112;24.738;2023-04-30T00:21:35;3.57;;;2.60;;
9888;SDS011;4983;42.112;24.738;2023-04-30T00:24:02;3.10;;;2.50;;
9888;SDS011;4983;42.112;24.738;2023-04-30T00:26:29;2.77;;;2.23;;
9888;SDS011;4983;42.112;24.738;2023-04-30T00:28:56;3.27;;;2.50;;
9888;SDS011;4983;42.112;24.738;2023-04-30T00:31:23;5.00;;;2.40;;
9888;SDS011;4983;42.112;24.738;2023-04-30T00:33:50;6.27;;;2.50;;
9888;SDS011;4983;42.112;24.738;2023-04-30T00:36:17;3.93;;;2.63;;
9888;SDS011;4983;42.112;24.738;2023-04-30T00:38:43;3.17;;;2.40;;
9888;SDS011;4983;42.112;24.738;2023-04-30T00:41:10;3.43;;;2.27;;
9888;SDS011;4983;42.112;24.738;2023-04-30T00:43:37;2.33;;;2.13;;
9888;SDS011;4983;42.112;24.738;2023-04-30T00:46:04;2.30;;;2.10;;
9888;SDS011;4983;42.112;24.738;2023-04-30T00:48:33;4.63;;;2.73;;
9888;SDS011;4983;42.112;24.738;2023-04-30T00:51:01;3.57;;;2.63;;
9888;SDS011;4983;42.112;24.738;2023-04-30T00:53:28;3.47;;;2.50;;
9888;SDS011;4983;42.112;24.738;2023-04-30T00:55:55;4.30;;;2.73;;
9888;SDS011;4983;42.112;24.738;2023-04-30T00:58:22;3.47;;;2.77;;
9888;SDS011;4983;42.112;24.738;2023-04-30T01:00:48;3.30;;;2.33;;
9888;SDS011;4983;42.112;24.738;2023-04-30T01:03:16;3.30;;;2.77;;
9888;SDS011;4983;42.112;24.738;2023-04-30T01:05:44;3.20;;;2.50;;
9888;SDS011;4983;42.112;24.738;2023-04-30T01:08:10;3.53;;;2.90;;
9888;SDS011;4983;42.112;24.738;2023-04-30T01:10:39;3.13;;;2.50;;
9888;SDS011;4983;42.112;24.738;2023-04-30T01:13:09;5.73;;;2.90;;
9888;SDS011;4983;42.112;24.738;2023-04-30T01:15:39;3.60;;;2.53;;
9888;SDS011;4983;42.112;24.738;2023-04-30T01:18:08;2.90;;;2.40;;
9888;SDS011;4983;42.112;24.738;2023-04-30T01:20:41;2.90;;;2.50;;
9888;SDS011;4983;42.112;24.738;2023-04-30T01:23:23;4.47;;;2.87;;
9888;SDS011;4983;42.112;24.738;2023-04-30T01:25:59;3.13;;;2.50;;
9888;SDS011;4983;42.112;24.738;2023-04-30T01:28:34;2.90;;;2.50;;
9888;SDS011;4983;42.112;24.738;2023-04-30T01:31:01;6.30;;;2.47;;
9888;SDS011;4983;42.112;24.738;2023-04-30T01:33:28;3.20;;;2.60;;
9888;SDS011;4983;42.112;24.738;2023-04-30T01:36:04;3.80;;;2.67;;
9888;SDS011;4983;42.112;24.738;2023-04-30T01:38:38;4.93;;;3.10;;
9888;SDS011;4983;42.112;24.738;2023-04-30T01:41:09;3.43;;;2.40;;
9888;SDS011;4983;42.112;24.738;2023-04-30T01:43:43;3.47;;;2.57;;
9888;SDS011;4983;42.112;24.738;2023-04-30T01:46:15;4.53;;;2.87;;
9888;SDS011;4983;42.112;24.738;2023-04-30T01:48:46;3.27;;;2.60;;
9888;SDS011;4983;42.112;24.738;2023-04-30T01:51:24;3.00;;;2.60;;
9888;SDS011;4983;42.112;24.738;2023-04-30T01:53:52;3.00;;;2.63;;
9888;SDS011;4983;42.112;24.738;2023-04-30T01:56:23;2.97;;;2.30;;
9888;SDS011;4983;42.112;24.738;2023-04-30T01:58:54;4.30;;;2.67;;
9888;SDS011;4983;42.112;24.738;2023-04-30T02:01:27;3.30;;;2.80;;
9888;SDS011;4983;42.112;24.738;2023-04-30T02:03:55;3.40;;;2.47;;
9888;SDS011;4983;42.112;24.738;2023-04-30T02:06:22;3.90;;;2.70;;
9888;SDS011;4983;42.112;24.738;2023-04-30T02:08:52;3.33;;;2.93;;
9888;SDS011;4983;42.112;24.738;2023-04-30T02:11:18;3.10;;;2.77;;
9888;SDS011;4983;42.112;24.738;2023-04-30T02:13:45;3.30;;;3.00;;
9888;SDS011;4983;42.112;24.738;2023-04-30T02:16:13;3.10;;;2.60;;
9888;SDS011;4983;42.112;24.738;2023-04-30T02:18:40;5.07;;;2.97;;
9888;SDS011;4983;42.112;24.738;2023-04-30T02:21:07;3.13;;;2.70;;
9888;SDS011;4983;42.112;24.738;2023-04-30T02:23:33;3.50;;;2.80;;
9888;SDS011;4983;42.112;24.738;2023-04-30T02:26:00;3.97;;;2.60;;
9888;SDS011;4983;42.112;24.738;2023-04-30T02:28:27;2.80;;;2.37;;
9888;SDS011;4983;42.112;24.738;2023-04-30T02:30:53;3.50;;;2.80;;
9888;SDS011;4983;42.112;24.738;2023-04-30T02:33:22;4.40;;;2.90;;
9888;SDS011;4983;42.112;24.738;2023-04-30T02:35:49;3.27;;;2.70;;
9888;SDS011;4983;42.112;24.738;2023-04-30T02:38:16;2.97;;;2.60;;
9888;SDS011;4983;42.112;24.738;2023-04-30T02:40:43;2.87;;;2.40;;
9888;SDS011;4983;42.112;24.738;2023-04-30T02:43:10;3.17;;;2.67;;
9888;SDS011;4983;42.112;24.738;2023-04-30T02:45:36;2.60;;;2.40;;
9888;SDS011;4983;42.112;24.738;2023-04-30T02:48:03;4.17;;;3.20;;
9888;SDS011;4983;42.112;24.738;2023-04-30T02:50:32;5.57;;;2.67;;
9888;SDS011;4983;42.112;24.738;2023-04-30T02:52:59;3.83;;;2.80;;
9888;SDS011;4983;42.112;24.738;2023-04-30T02:55:26;3.30;;;2.80;;
9888;SDS011;4983;42.112;24.738;2023-04-30T02:57:52;3.30;;;2.70;;
9888;SDS011;4983;42.112;24.738;2023-04-30T03:00:19;3.43;;;2.77;;
9888;SDS011;4983;42.112;24.738;2023-04-30T03:02:46;3.67;;;2.80;;
9888;SDS011;4983;42.112;24.738;2023-04-30T03:05:13;4.32;;;3.38;;
9888;SDS011;4983;42.112;24.738;2023-04-30T03:07:43;4.70;;;2.80;;
9888;SDS011;4983;42.112;24.738;2023-04-30T03:10:10;3.00;;;2.70;;
9888;SDS011;4983;42.112;24.738;2023-04-30T03:12:36;3.27;;;2.70;;
9888;SDS011;4983;42.112;24.738;2023-04-30T03:15:03;2.87;;;2.40;;
9888;SDS011;4983;42.112;24.738;2023-04-30T03:17:30;3.20;;;2.90;;
9888;SDS011;4983;42.112;24.738;2023-04-30T03:19:57;3.43;;;2.53;;
9888;SDS011;4983;42.112;24.738;2023-04-30T03:22:23;4.70;;;2.80;;
9888;SDS011;4983;42.112;24.738;2023-04-30T03:24:52;3.70;;;2.70;;
9888;SDS011;4983;42.112;24.738;2023-04-30T03:27:18;3.93;;;2.80;;
9888;SDS011;4983;42.112;24.738;2023-04-30T03:29:45;3.10;;;2.70;;
9888;SDS011;4983;42.112;24.738;2023-04-30T03:32:13;3.07;;;2.77;;
9888;SDS011;4983;42.112;24.738;2023-04-30T03:34:39;3.00;;;2.70;;
9888;SDS011;4983;42.112;24.738;2023-04-30T03:37:06;4.33;;;3.10;;
9888;SDS011;4983;42.112;24.738;2023-04-30T03:39:33;3.77;;;3.10;;
9888;SDS011;4983;42.112;24.738;2023-04-30T03:42:01;4.43;;;2.77;;
9888;SDS011;4983;42.112;24.738;2023-04-30T03:44:28;5.50;;;3.27;;
9888;SDS011;4983;42.112;24.738;2023-04-30T03:46:54;4.03;;;2.93;;
9888;SDS011;4983;42.112;24.738;2023-04-30T03:49:21;3.53;;;3.00;;
9888;SDS011;4983;42.112;24.738;2023-04-30T03:51:48;4.10;;;2.97;;
9888;SDS011;4983;42.112;24.738;2023-04-30T03:54:15;4.73;;;3.00;;
9888;SDS011;4983;42.112;24.738;2023-04-30T03:56:42;4.30;;;3.20;;
9888;SDS011;4983;42.112;24.738;2023-04-30T03:59:10;3.27;;;2.97;;
9888;SDS011;4983;42.112;24.738;2023-04-30T04:01:37;4.67;;;3.30;;
9888;SDS011;4983;42.112;24.738;2023-04-30T04:04:04;5.63;;;3.30;;
9888;SDS011;4983;42.112;24.738;2023-04-30T04:06:30;4.67;;;3.50;;
9888;SDS011;4983;42.112;24.738;2023-04-30T04:08:57;4.40;;;3.47;;
9888;SDS011;4983;42.112;24.738;2023-04-30T04:11:24;4.10;;;3.13;;
9888;SDS011;4983;42.112;24.738;2023-04-30T04:13:50;4.17;;;3.53;;
9888;SDS011;4983;42.112;24.738;2023-04-30T04:16:18;4.43;;;3.63;;
9888;SDS011;4983;42.112;24.738;2023-04-30T04:18:45;4.57;;;3.67;;
9888;SDS011;4983;42.112;24.738;2023-04-30T04:21:11;4.53;;;3.80;;
9888;SDS011;4983;42.112;24.738;2023-04-30T04:23:38;4.40;;;3.60;;
9888;SDS011;4983;42.112;24.738;2023-04-30T04:26:05;4.37;;;3.57;;
9888;SDS011;4983;42.112;24.738;2023-04-30T04:28:32;3.63;;;3.30;;
9888;SDS011;4983;42.112;24.738;2023-04-30T04:30:58;5.63;;;3.70;;
9888;SDS011;4983;42.112;24.738;2023-04-30T04:33:26;4.43;;;4.00;;
9888;SDS011;4983;42.112;24.738;2023-04-30T04:35:53;6.53;;;3.70;;
9888;SDS011;4983;42.112;24.738;2023-04-30T04:38:22;4.67;;;3.30;;
9888;SDS011;4983;42.112;24.738;2023-04-30T04:40:52;4.57;;;3.57;;
9888;SDS011;4983;42.112;24.738;2023-04-30T04:43:18;8.40;;;4.20;;
9888;SDS011;4983;42.112;24.738;2023-04-30T04:45:45;5.53;;;4.20;;
9888;SDS011;4983;42.112;24.738;2023-04-30T04:48:12;4.83;;;3.77;;
9888;SDS011;4983;42.112;24.738;2023-04-30T04:50:42;5.00;;;4.23;;
9888;SDS011;4983;42.112;24.738;2023-04-30T04:53:10;5.67;;;3.67;;
9888;SDS011;4983;42.112;24.738;2023-04-30T04:55:37;4.83;;;4.00;;
9888;SDS011;4983;42.112;24.738;2023-04-30T04:58:04;5.83;;;4.43;;
9888;SDS011;4983;42.112;24.738;2023-04-30T05:00:31;5.47;;;4.47;;
9888;SDS011;4983;42.112;24.738;2023-04-30T05:02:58;5.90;;;4.37;;
9888;SDS011;4983;42.112;24.738;2023-04-30T05:05:25;5.47;;;4.43;;
9888;SDS011;4983;42.112;24.738;2023-04-30T05:07:54;6.83;;;4.60;;
9888;SDS011;4983;42.112;24.738;2023-04-30T05:10:20;5.33;;;4.63;;
9888;SDS011;4983;42.112;24.738;2023-04-30T05:12:47;6.97;;;4.50;;
9888;SDS011;4983;42.112;24.738;2023-04-30T05:15:14;6.67;;;4.53;;
9888;SDS011;4983;42.112;24.738;2023-04-30T05:17:41;5.27;;;4.37;;
9888;SDS011;4983;42.112;24.738;2023-04-30T05:20:08;5.47;;;4.13;;
9888;SDS011;4983;42.112;24.738;2023-04-30T05:22:35;7.57;;;4.63;;
9888;SDS011;4983;42.112;24.738;2023-04-30T05:25:03;6.17;;;4.67;;
9888;SDS011;4983;42.112;24.738;2023-04-30T05:27:31;4.77;;;3.87;;
9888;SDS011;4983;42.112;24.738;2023-04-30T05:29:58;6.83;;;4.50;;
9888;SDS011;4983;42.112;24.738;2023-04-30T05:32:25;4.83;;;3.80;;
9888;SDS011;4983;42.112;24.738;2023-04-30T05:34:52;4.80;;;4.27;;
9888;SDS011;4983;42.112;24.738;2023-04-30T05:37:18;5.60;;;3.93;;
9888;SDS011;4983;42.112;24.738;2023-04-30T05:39:46;5.63;;;4.23;;
9888;SDS011;4983;42.112;24.738;2023-04-30T05:42:14;4.33;;;3.80;;
9888;SDS011;4983;42.112;24.738;2023-04-30T05:44:41;6.30;;;4.80;;
9888;SDS011;4983;42.112;24.738;2023-04-30T05:47:08;4.87;;;4.17;;
9888;SDS011;4983;42.112;24.738;2023-04-30T05:49:34;5.90;;;4.40;;
9888;SDS011;4983;42.112;24.738;2023-04-30T05:52:01;5.30;;;4.17;;
9888;SDS011;4983;42.112;24.738;2023-04-30T05:54:28;5.10;;;3.93;;
9888;SDS011;4983;42.112;24.738;2023-04-30T05:56:56;4.77;;;4.00;;
9888;SDS011;4983;42.112;24.738;2023-04-30T05:59:25;4.10;;;3.70;;
9888;SDS011;4983;42.112;24.738;2023-04-30T06:01:51;4.33;;;3.60;;
9888;SDS011;4983;42.112;24.738;2023-04-30T06:04:19;6.13;;;3.90;;
9888;SDS011;4983;42.112;24.738;2023-04-30T06:06:46;5.47;;;3.87;;
9888;SDS011;4983;42.112;24.738;2023-04-30T06:09:12;3.80;;;3.33;;
9888;SDS011;4983;42.112;24.738;2023-04-30T06:11:39;4.37;;;3.80;;
9888;SDS011;4983;42.112;24.738;2023-04-30T06:14:06;5.47;;;3.60;;
9888;SDS011;4983;42.112;24.738;2023-04-30T06:16:34;4.07;;;3.10;;
9888;SDS011;4983;42.112;24.738;2023-04-30T06:19:01;3.70;;;3.07;;
9888;SDS011;4983;42.112;24.738;2023-04-30T06:21:28;4.67;;;3.27;;
9888;SDS011;4983;42.112;24.738;2023-04-30T06:23:55;3.40;;;2.90;;
9888;SDS011;4983;42.112;24.738;2023-04-30T06:26:21;4.23;;;3.23;;
9888;SDS011;4983;42.112;24.738;2023-04-30T06:28:48;4.07;;;3.63;;
9888;SDS011;4983;42.112;24.738;2023-04-30T06:31:14;4.87;;;3.60;;
9888;SDS011;4983;42.112;24.738;2023-04-30T06:33:42;4.13;;;3.10;;
9888;SDS011;4983;42.112;24.738;2023-04-30T06:36:09;3.43;;;3.13;;
9888;SDS011;4983;42.112;24.738;2023-04-30T06:38:36;3.23;;;2.87;;
9888;SDS011;4983;42.112;24.738;2023-04-30T06:41:02;3.70;;;3.00;;
9888;SDS011;4983;42.112;24.738;2023-04-30T06:43:29;3.37;;;2.67;;
9888;SDS011;4983;42.112;24.738;2023-04-30T06:45:56;3.60;;;3.30;;
9888;SDS011;4983;42.112;24.738;2023-04-30T06:48:23;5.13;;;3.00;;
9888;SDS011;4983;42.112;24.738;2023-04-30T06:50:51;3.40;;;3.03;;
9888;SDS011;4983;42.112;24.738;2023-04-30T06:53:18;3.83;;;3.50;;
9888;SDS011;4983;42.112;24.738;2023-04-30T06:55:45;4.40;;;3.50;;
9888;SDS011;4983;42.112;24.738;2023-04-30T06:58:11;5.57;;;3.63;;
9888;SDS011;4983;42.112;24.738;2023-04-30T07:00:38;3.37;;;3.00;;
9888;SDS011;4983;42.112;24.738;2023-04-30T07:03:06;3.97;;;3.17;;
9888;SDS011;4983;42.112;24.738;2023-04-30T07:05:33;4.47;;;3.20;;
9888;SDS011;4983;42.112;24.738;2023-04-30T07:08:02;3.90;;;3.43;;
9888;SDS011;4983;42.112;24.738;2023-04-30T07:10:29;4.03;;;3.40;;
9888;SDS011;4983;42.112;24.738;2023-04-30T07:12:56;4.03;;;3.30;;
9888;SDS011;4983;42.112;24.738;2023-04-30T07:15:23;3.50;;;3.20;;
9888;SDS011;4983;42.112;24.738;2023-04-30T07:17:50;3.43;;;3.13;;
9888;SDS011;4983;42.112;24.738;2023-04-30T07:20:16;5.23;;;3.33;;
9888;SDS011;4983;42.112;24.738;2023-04-30T07:22:45;3.63;;;3.33;;
9888;SDS011;4983;42.112;24.738;2023-04-30T07:25:13;3.70;;;3.23;;
9888;SDS011;4983;42.112;24.738;2023-04-30T07:27:40;3.20;;;2.80;;
9888;SDS011;4983;42.112;24.738;2023-04-30T07:30:07;4.57;;;2.90;;
9888;SDS011;4983;42.112;24.738;2023-04-30T07:32:34;2.77;;;2.30;;
9888;SDS011;4983;42.112;24.738;2023-04-30T07:35:01;4.53;;;2.80;;
9888;SDS011;4983;42.112;24.738;2023-04-30T07:37:29;2.73;;;2.40;;
9888;SDS011;4983;42.112;24.738;2023-04-30T07:39:55;3.03;;;2.60;;
9888;SDS011;4983;42.112;24.738;2023-04-30T07:42:23;3.10;;;2.80;;
9888;SDS011;4983;42.112;24.738;2023-04-30T07:44:50;4.03;;;2.60;;
9888;SDS011;4983;42.112;24.738;2023-04-30T07:47:17;3.07;;;2.60;;
9888;SDS011;4983;42.112;24.738;2023-04-30T07:49:44;2.60;;;2.37;;
9888;SDS011;4983;42.112;24.738;2023-04-30T07:52:11;4.03;;;2.63;;
9888;SDS011;4983;42.112;24.738;2023-04-30T07:54:38;2.77;;;2.43;;
9888;SDS011;4983;42.112;24.738;2023-04-30T07:57:05;3.47;;;2.17;;
9888;SDS011;4983;42.112;24.738;2023-04-30T07:59:33;3.30;;;2.40;;
9888;SDS011;4983;42.112;24.738;2023-04-30T08:02:00;2.50;;;2.30;;
9888;SDS011;4983;42.112;24.738;2023-04-30T08:04:26;2.40;;;2.00;;
9888;SDS011;4983;42.112;24.738;2023-04-30T08:06:53;3.40;;;2.50;;
9888;SDS011;4983;42.112;24.738;2023-04-30T08:09:20;2.73;;;2.27;;
9888;SDS011;4983;42.112;24.738;2023-04-30T08:11:47;3.07;;;2.43;;
9888;SDS011;4983;42.112;24.738;2023-04-30T08:14:13;2.60;;;2.40;;
9888;SDS011;4983;42.112;24.738;2023-04-30T08:16:41;2.90;;;2.10;;
9888;SDS011;4983;42.112;24.738;2023-04-30T08:19:08;2.30;;;2.10;;
9888;SDS011;4983;42.112;24.738;2023-04-30T08:21:35;2.50;;;2.30;;
9888;SDS011;4983;42.112;24.738;2023-04-30T08:24:01;2.27;;;2.07;;
9888;SDS011;4983;42.112;24.738;2023-04-30T08:26:28;2.40;;;2.10;;
9888;SDS011;4983;42.112;24.738;2023-04-30T08:28:55;2.40;;;2.17;;
9888;SDS011;4983;42.112;24.738;2023-04-30T08:31:22;2.13;;;1.93;;
9888;SDS011;4983;42.112;24.738;2023-04-30T08:33:50;2.03;;;1.83;;
9888;SDS011;4983;42.112;24.738;2023-04-30T08:36:16;1.67;;;1.57;;
9888;SDS011;4983;42.112;24.738;2023-04-30T08:38:44;2.83;;;1.70;;
9888;SDS011;4983;42.112;24.738;2023-04-30T08:41:11;1.60;;;1.50;;
9888;SDS011;4983;42.112;24.738;2023-04-30T08:43:38;2.40;;;1.90;;
9888;SDS011;4983;42.112;24.738;2023-04-30T08:46:04;2.00;;;1.70;;
9888;SDS011;4983;42.112;24.738;2023-04-30T08:48:32;2.30;;;1.90;;
9888;SDS011;4983;42.112;24.738;2023-04-30T08:51:00;2.63;;;2.00;;
9888;SDS011;4983;42.112;24.738;2023-04-30T08:53:28;2.50;;;1.40;;
9888;SDS011;4983;42.112;24.738;2023-04-30T08:55:55;2.40;;;2.00;;
9888;SDS011;4983;42.112;24.738;2023-04-30T08:58:22;3.43;;;1.90;;
9888;SDS011;4983;42.112;24.738;2023-04-30T09:00:50;2.17;;;1.70;;
9888;SDS011;4983;42.112;24.738;2023-04-30T09:03:16;2.20;;;1.80;;
9888;SDS011;4983;42.112;24.738;2023-04-30T09:05:43;2.67;;;1.80;;
9888;SDS011;4983;42.112;24.738;2023-04-30T09:08:14;1.70;;;1.60;;
9888;SDS011;4983;42.112;24.738;2023-04-30T09:10:42;2.00;;;1.53;;
9888;SDS011;4983;42.112;24.738;2023-04-30T09:13:08;2.20;;;1.90;;
9888;SDS011;4983;42.112;24.738;2023-04-30T09:15:37;2.27;;;1.90;;
9888;SDS011;4983;42.112;24.738;2023-04-30T09:18:09;2.00;;;1.70;;
9888;SDS011;4983;42.112;24.738;2023-04-30T09:20:37;2.17;;;1.73;;
9888;SDS011;4983;42.112;24.738;2023-04-30T09:23:04;2.30;;;2.10;;
9888;SDS011;4983;42.112;24.738;2023-04-30T09:25:38;2.60;;;2.00;;
9888;SDS011;4983;42.112;24.738;2023-04-30T09:28:06;1.77;;;1.57;;
9888;SDS011;4983;42.112;24.738;2023-04-30T09:30:33;2.10;;;1.70;;
9888;SDS011;4983;42.112;24.738;2023-04-30T09:33:02;1.93;;;1.50;;
9888;SDS011;4983;42.112;24.738;2023-04-30T09:35:29;3.13;;;2.87;;
9888;SDS011;4983;42.112;24.738;2023-04-30T09:37:55;2.07;;;1.80;;
9888;SDS011;4983;42.112;24.738;2023-04-30T09:40:31;2.87;;;1.80;;
9888;SDS011;4983;42.112;24.738;2023-04-30T09:42:59;1.67;;;1.57;;
9888;SDS011;4983;42.112;24.738;2023-04-30T09:45:27;3.30;;;2.83;;
9888;SDS011;4983;42.112;24.738;2023-04-30T09:48:04;2.17;;;1.90;;
9888;SDS011;4983;42.112;24.738;2023-04-30T09:50:35;1.77;;;1.60;;
9888;SDS011;4983;42.112;24.738;2023-04-30T09:53:04;2.90;;;2.00;;
9888;SDS011;4983;42.112;24.738;2023-04-30T09:55:32;1.40;;;1.30;;
9888;SDS011;4983;42.112;24.738;2023-04-30T09:58:02;1.77;;;1.50;;
9888;SDS011;4983;42.112;24.738;2023-04-30T10:00:30;2.10;;;1.70;;
9888;SDS011;4983;42.112;24.738;2023-04-30T10:02:59;2.00;;;1.53;;
9888;SDS011;4983;42.112;24.738;2023-04-30T10:05:27;1.50;;;1.40;;
9888;SDS011;4983;42.112;24.738;2023-04-30T10:07:54;2.30;;;1.77;;
9888;SDS011;4983;42.112;24.738;2023-04-30T10:10:21;1.80;;;1.70;;
9888;SDS011;4983;42.112;24.738;2023-04-30T10:12:49;2.43;;;2.23;;
9888;SDS011;4983;42.112;24.738;2023-04-30T10:15:18;2.73;;;1.77;;
9888;SDS011;4983;42.112;24.738;2023-04-30T10:17:46;3.17;;;2.30;;
9888;SDS011;4983;42.112;24.738;2023-04-30T10:20:15;1.70;;;1.60;;
9888;SDS011;4983;42.112;24.738;2023-04-30T10:22:43;1.70;;;1.60;;
9888;SDS011;4983;42.112;24.738;2023-04-30T10:25:11;2.10;;;1.60;;
9888;SDS011;4983;42.112;24.738;2023-04-30T10:27:39;1.93;;;1.70;;
9888;SDS011;4983;42.112;24.738;2023-04-30T10:30:07;2.00;;;1.80;;
9888;SDS011;4983;42.112;24.738;2023-04-30T10:32:37;1.67;;;1.57;;
9888;SDS011;4983;42.112;24.738;2023-04-30T10:35:08;1.87;;;1.70;;
9888;SDS011;4983;42.112;24.738;2023-04-30T10:37:39;4.27;;;2.10;;
9888;SDS011;4983;42.112;24.738;2023-04-30T10:40:08;1.60;;;1.40;;
9888;SDS011;4983;42.112;24.738;2023-04-30T10:42:35;2.40;;;1.60;;
9888;SDS011;4983;42.112;24.738;2023-04-30T10:45:03;2.40;;;1.60;;
9888;SDS011;4983;42.112;24.738;2023-04-30T10:47:30;2.53;;;1.50;;
9888;SDS011;4983;42.112;24.738;2023-04-30T10:50:08;2.07;;;1.80;;
9888;SDS011;4983;42.112;24.738;2023-04-30T10:52:36;2.40;;;2.07;;
9888;SDS011;4983;42.112;24.738;2023-04-30T10:55:03;2.33;;;1.90;;
9888;SDS011;4983;42.112;24.738;2023-04-30T10:57:31;1.93;;;1.73;;
9888;SDS011;4983;42.112;24.738;2023-04-30T11:02:39;2.07;;;1.90;;
9888;SDS011;4983;42.112;24.738;2023-04-30T11:05:12;1.90;;;1.70;;
9888;SDS011;4983;42.112;24.738;2023-04-30T11:07:45;1.93;;;1.63;;
9888;SDS011;4983;42.112;24.738;2023-04-30T11:10:13;1.97;;;1.60;;
9888;SDS011;4983;42.112;24.738;2023-04-30T11:12:40;1.80;;;1.70;;
9888;SDS011;4983;42.112;24.738;2023-04-30T11:15:12;1.57;;;1.33;;
9888;SDS011;4983;42.112;24.738;2023-04-30T11:17:41;1.97;;;1.53;;
9888;SDS011;4983;42.112;24.738;2023-04-30T11:20:12;3.13;;;2.07;;
9888;SDS011;4983;42.112;24.738;2023-04-30T11:22:41;2.60;;;2.40;;
9888;SDS011;4983;42.112;24.738;2023-04-30T11:25:09;2.80;;;2.37;;
9888;SDS011;4983;42.112;24.738;2023-04-30T11:27:37;6.47;;;5.57;;
9888;SDS011;4983;42.112;24.738;2023-04-30T11:30:10;3.30;;;2.60;;
9888;SDS011;4983;42.112;24.738;2023-04-30T11:32:39;2.00;;;1.70;;
9888;SDS011;4983;42.112;24.738;2023-04-30T11:35:07;2.50;;;2.30;;
9888;SDS011;4983;42.112;24.738;2023-04-30T11:37:35;1.70;;;1.50;;
9888;SDS011;4983;42.112;24.738;2023-04-30T11:40:04;3.10;;;2.30;;
9888;SDS011;4983;42.112;24.738;2023-04-30T11:42:33;2.60;;;2.20;;
9888;SDS011;4983;42.112;24.738;2023-04-30T11:45:03;2.37;;;1.80;;
9888;SDS011;4983;42.112;24.738;2023-04-30T11:47:40;2.30;;;2.10;;
9888;SDS011;4983;42.112;24.738;2023-04-30T11:50:07;2.30;;;1.90;;
9888;SDS011;4983;42.112;24.738;2023-04-30T11:52:36;3.97;;;2.13;;
9888;SDS011;4983;42.112;24.738;2023-04-30T11:57:48;2.05;;;1.75;;
9888;SDS011;4983;42.112;24.738;2023-04-30T12:00:15;6.77;;;4.77;;
9888;SDS011;4983;42.112;24.738;2023-04-30T12:02:43;7.63;;;5.50;;
9888;SDS011;4983;42.112;24.738;2023-04-30T12:05:11;3.23;;;2.90;;
9888;SDS011;4983;42.112;24.738;2023-04-30T12:07:44;9.70;;;5.83;;
9888;SDS011;4983;42.112;24.738;2023-04-30T12:10:12;5.73;;;3.70;;
9888;SDS011;4983;42.112;24.738;2023-04-30T12:12:39;2.93;;;1.90;;
9888;SDS011;4983;42.112;24.738;2023-04-30T12:15:12;2.63;;;2.03;;
9888;SDS011;4983;42.112;24.738;2023-04-30T12:17:40;6.37;;;4.20;;
9888;SDS011;4983;42.112;24.738;2023-04-30T12:20:07;1.77;;;1.60;;
9888;SDS011;4983;42.112;24.738;2023-04-30T12:22:34;3.77;;;1.47;;
9888;SDS011;4983;42.112;24.738;2023-04-30T12:25:04;3.17;;;1.53;;
9888;SDS011;4983;42.112;24.738;2023-04-30T12:27:31;1.47;;;1.37;;
9888;SDS011;4983;42.112;24.738;2023-04-30T12:30:01;3.43;;;1.80;;
9888;SDS011;4983;42.112;24.738;2023-04-30T12:32:28;1.20;;;1.10;;
9888;SDS011;4983;42.112;24.738;2023-04-30T12:34:56;1.40;;;1.30;;
9888;SDS011;4983;42.112;24.738;2023-04-30T12:37:25;1.70;;;1.40;;
9888;SDS011;4983;42.112;24.738;2023-04-30T12:39:54;1.70;;;1.50;;
9888;SDS011;4983;42.112;24.738;2023-04-30T12:42:23;2.57;;;1.57;;
9888;SDS011;4983;42.112;24.738;2023-04-30T12:44:50;2.20;;;1.70;;
9888;SDS011;4983;42.112;24.738;2023-04-30T12:47:17;1.83;;;1.73;;
9888;SDS011;4983;42.112;24.738;2023-04-30T12:49:45;2.27;;;1.70;;
9888;SDS011;4983;42.112;24.738;2023-04-30T12:52:12;2.80;;;2.60;;
9888;SDS011;4983;42.112;24.738;2023-04-30T12:54:39;4.20;;;3.43;;
9888;SDS011;4983;42.112;24.738;2023-04-30T12:57:07;6.87;;;5.43;;
9888;SDS011;4983;42.112;24.738;2023-04-30T12:59:35;9.37;;;6.70;;
9888;SDS011;4983;42.112;24.738;2023-04-30T13:02:06;6.00;;;3.63;;
9888;SDS011;4983;42.112;24.738;2023-04-30T13:04:33;15.43;;;9.27;;
9888;SDS011;4983;42.112;24.738;2023-04-30T13:07:00;19.83;;;12.87;;
9888;SDS011;4983;42.112;24.738;2023-04-30T13:09:27;12.30;;;8.57;;
9888;SDS011;4983;42.112;24.738;2023-04-30T13:11:54;7.80;;;4.90;;
9888;SDS011;4983;42.112;24.738;2023-04-30T13:14:21;2.27;;;1.70;;
9888;SDS011;4983;42.112;24.738;2023-04-30T13:16:50;2.43;;;2.00;;
9888;SDS011;4983;42.112;24.738;2023-04-30T13:19:17;7.23;;;5.37;;
9888;SDS011;4983;42.112;24.738;2023-04-30T13:21:44;22.63;;;15.10;;
9888;SDS011;4983;42.112;24.738;2023-04-30T13:24:12;4.93;;;3.80;;
9888;SDS011;4983;42.112;24.738;2023-04-30T13:26:40;2.10;;;1.80;;
9888;SDS011;4983;42.112;24.738;2023-04-30T13:29:07;1.70;;;1.60;;
9888;SDS011;4983;42.112;24.738;2023-04-30T13:31:33;2.73;;;2.53;;
9888;SDS011;4983;42.112;24.738;2023-04-30T13:34:01;2.73;;;2.53;;
9888;SDS011;4983;42.112;24.738;2023-04-30T13:36:28;2.20;;;1.93;;
9888;SDS011;4983;42.112;24.738;2023-04-30T13:38:55;1.93;;;1.60;;
9888;SDS011;4983;42.112;24.738;2023-04-30T13:41:22;1.70;;;1.60;;
9888;SDS011;4983;42.112;24.738;2023-04-30T13:43:51;2.50;;;1.80;;
9888;SDS011;4983;42.112;24.738;2023-04-30T13:46:17;4.80;;;2.17;;
9888;SDS011;4983;42.112;24.738;2023-04-30T13:48:44;2.20;;;1.77;;
9888;SDS011;4983;42.112;24.738;2023-04-30T13:51:13;2.30;;;2.10;;
9888;SDS011;4983;42.112;24.738;2023-04-30T13:53:40;2.97;;;2.60;;
9888;SDS011;4983;42.112;24.738;2023-04-30T13:56:07;2.03;;;1.83;;
9888;SDS011;4983;42.112;24.738;2023-04-30T13:58:34;1.90;;;1.80;;
9888;SDS011;4983;42.112;24.738;2023-04-30T14:01:01;2.17;;;1.97;;
9888;SDS011;4983;42.112;24.738;2023-04-30T14:03:28;2.20;;;1.77;;
9888;SDS011;4983;42.112;24.738;2023-04-30T14:05:55;3.13;;;1.90;;
9888;SDS011;4983;42.112;24.738;2023-04-30T14:08:23;2.23;;;2.03;;
9888;SDS011;4983;42.112;24.738;2023-04-30T14:10:50;1.60;;;1.50;;
9888;SDS011;4983;42.112;24.738;2023-04-30T14:13:17;2.00;;;1.77;;
9888;SDS011;4983;42.112;24.738;2023-04-30T14:15:43;2.50;;;2.10;;
9888;SDS011;4983;42.112;24.738;2023-04-30T14:18:12;2.00;;;1.57;;
9888;SDS011;4983;42.112;24.738;2023-04-30T14:20:38;1.90;;;1.70;;
9888;SDS011;4983;42.112;24.738;2023-04-30T14:23:05;2.33;;;1.90;;
9888;SDS011;4983;42.112;24.738;2023-04-30T14:25:34;3.47;;;1.50;;
9888;SDS011;4983;42.112;24.738;2023-04-30T14:28:01;2.47;;;1.73;;
9888;SDS011;4983;42.112;24.738;2023-04-30T14:30:28;3.73;;;1.93;;
9888;SDS011;4983;42.112;24.738;2023-04-30T14:32:54;2.97;;;2.33;;
9888;SDS011;4983;42.112;24.738;2023-04-30T14:35:21;3.03;;;2.17;;
9888;SDS011;4983;42.112;24.738;2023-04-30T14:37:50;4.87;;;2.70;;
9888;SDS011;4983;42.112;24.738;2023-04-30T14:40:16;4.87;;;2.43;;
9888;SDS011;4983;42.112;24.738;2023-04-30T14:42:45;2.77;;;1.93;;
9888;SDS011;4983;42.112;24.738;2023-04-30T14:45:14;3.70;;;2.13;;
9888;SDS011;4983;42.112;24.738;2023-04-30T14:47:41;2.57;;;1.60;;
9888;SDS011;4983;42.112;24.738;2023-04-30T14:50:09;3.67;;;1.70;;
9888;SDS011;4983;42.112;24.738;2023-04-30T14:52:38;1.77;;;1.67;;
9888;SDS011;4983;42.112;24.738;2023-04-30T14:55:08;2.47;;;1.70;;
9888;SDS011;4983;42.112;24.738;2023-04-30T14:57:35;3.13;;;1.40;;
9888;SDS011;4983;42.112;24.738;2023-04-30T15:00:03;1.67;;;1.50;;
9888;SDS011;4983;42.112;24.738;2023-04-30T15:02:31;1.40;;;1.30;;
9888;SDS011;4983;42.112;24.738;2023-04-30T15:04:57;2.20;;;1.77;;
9888;SDS011;4983;42.112;24.738;2023-04-30T15:07:24;1.20;;;1.10;;
9888;SDS011;4983;42.112;24.738;2023-04-30T15:09:52;1.33;;;1.23;;